createdAt,value
2022-09-28T00:00:59.909Z,0
2022-09-28T00:02:02.977Z,0
2022-09-28T00:03:06.377Z,0
2022-09-28T00:04:10.102Z,0
2022-09-28T00:05:13.437Z,0
2022-09-28T00:06:16.214Z,0
2022-09-28T00:07:19.579Z,0
2022-09-28T00:08:22.288Z,0
2022-09-28T00:09:26.279Z,0
2022-09-28T00:10:29.408Z,0
2022-09-28T00:11:31.915Z,0
2022-09-28T00:12:35.809Z,0
2022-09-28T00:13:38.884Z,0
2022-09-28T00:14:41.587Z,0
2022-09-28T00:15:45.007Z,0
2022-09-28T00:16:48.524Z,0
2022-09-28T00:17:52.831Z,0
2022-09-28T00:18:55.541Z,0
2022-09-28T00:19:58.608Z,0
2022-09-28T00:21:01.951Z,0
2022-09-28T00:22:05.148Z,0
2022-09-28T00:23:08.007Z,0
2022-09-28T00:24:10.523Z,0
2022-09-28T00:25:13.949Z,0
2022-09-28T00:26:16.936Z,0
2022-09-28T00:27:20.112Z,0
2022-09-28T00:28:24.100Z,0
2022-09-28T00:29:27.252Z,0
2022-09-28T00:30:30.313Z,0
2022-09-28T00:31:33.187Z,0
2022-09-28T00:32:36.539Z,0
2022-09-28T00:33:39.418Z,0
2022-09-28T00:34:42.183Z,0
2022-09-28T00:35:44.739Z,0
2022-09-28T00:36:47.989Z,0
2022-09-28T00:37:50.761Z,0
2022-09-28T00:38:54.208Z,0
2022-09-28T00:39:57.930Z,0
2022-09-28T00:41:00.966Z,0
2022-09-28T00:42:04.284Z,0
2022-09-28T00:43:06.883Z,0
2022-09-28T00:44:10.740Z,0
2022-09-28T00:45:13.817Z,0
2022-09-28T00:46:16.138Z,0
2022-09-28T00:47:20.202Z,0
2022-09-28T00:48:23.625Z,0
2022-09-28T00:49:26.582Z,0
2022-09-28T00:50:29.944Z,0
2022-09-28T00:51:32.822Z,0
2022-09-28T00:52:35.973Z,0
2022-09-28T00:53:39.329Z,0
2022-09-28T00:54:42.819Z,0
2022-09-28T00:55:45.977Z,0
2022-09-28T00:56:49.147Z,0
2022-09-28T00:57:52.136Z,0
2022-09-28T00:58:55.571Z,0
2022-09-28T00:59:59.871Z,0
2022-09-28T01:01:02.864Z,0
2022-09-28T01:02:06.551Z,0
2022-09-28T01:03:09.796Z,0
2022-09-28T01:04:12.581Z,0
2022-09-28T01:05:15.109Z,0
2022-09-28T01:06:18.530Z,0
2022-09-28T01:07:21.425Z,0
2022-09-28T01:08:24.712Z,0
2022-09-28T01:09:27.297Z,0
2022-09-28T01:10:30.921Z,0
2022-09-28T01:11:34.077Z,0
2022-09-28T01:12:37.220Z,0
2022-09-28T01:13:39.663Z,0
2022-09-28T01:14:42.266Z,0
2022-09-28T01:15:46.399Z,0
2022-09-28T01:16:50.331Z,0
2022-09-28T01:17:53.371Z,0
2022-09-28T01:18:55.615Z,0
2022-09-28T01:19:57.854Z,0
2022-09-28T01:21:00.956Z,0
2022-09-28T01:22:04.321Z,0
2022-09-28T01:23:07.194Z,0
2022-09-28T01:24:09.721Z,0
2022-09-28T01:25:12.266Z,0
2022-09-28T01:26:14.857Z,0
2022-09-28T01:27:17.373Z,0
2022-09-28T01:28:19.809Z,0
2022-09-28T01:29:22.912Z,0
2022-09-28T01:30:25.506Z,0
2022-09-28T01:31:29.726Z,0
2022-09-28T01:32:33.821Z,0
2022-09-28T01:33:36.544Z,0
2022-09-28T01:34:39.911Z,0
2022-09-28T01:35:42.527Z,0
2022-09-28T01:36:45.136Z,0
2022-09-28T01:37:47.852Z,0
2022-09-28T01:38:50.949Z,0
2022-09-28T01:39:54.722Z,0
2022-09-28T01:40:57.620Z,0
2022-09-28T01:42:00.977Z,0
2022-09-28T01:43:03.850Z,0
2022-09-28T01:44:06.378Z,0
2022-09-28T01:45:09.282Z,0
2022-09-28T01:46:12.119Z,0
2022-09-28T01:47:16.746Z,0
2022-09-28T01:48:19.835Z,0
2022-09-28T01:49:23.844Z,0
2022-09-28T01:50:27.379Z,0
2022-09-28T01:51:30.261Z,0
2022-09-28T01:52:32.866Z,0
2022-09-28T01:53:35.383Z,0
2022-09-28T01:54:38.459Z,0
2022-09-28T01:55:41.901Z,0
2022-09-28T01:56:45.523Z,0
2022-09-28T01:57:48.518Z,0
2022-09-28T01:58:51.312Z,0
2022-09-28T01:59:54.663Z,0
2022-09-28T02:00:57.562Z,0
2022-09-28T02:02:01.197Z,0
2022-09-28T02:03:05.768Z,0
2022-09-28T02:04:08.914Z,0
2022-09-28T02:05:12.103Z,0
2022-09-28T02:06:15.177Z,0
2022-09-28T02:07:17.777Z,0
2022-09-28T02:08:21.431Z,0
2022-09-28T02:09:24.519Z,0
2022-09-28T02:10:35.568Z,0
2022-09-28T02:11:38.905Z,0
2022-09-28T02:12:41.509Z,0
2022-09-28T02:13:44.024Z,0
2022-09-28T02:14:46.892Z,0
2022-09-28T02:15:50.544Z,0
2022-09-28T02:16:52.980Z,0
2022-09-28T02:17:55.975Z,0
2022-09-28T02:18:59.836Z,0
2022-09-28T02:20:02.630Z,0
2022-09-28T02:21:05.426Z,0
2022-09-28T02:22:08.312Z,0
2022-09-28T02:23:11.734Z,0
2022-09-28T02:24:17.187Z,0
2022-09-28T02:25:24.277Z,0
2022-09-28T02:26:27.621Z,0
2022-09-28T02:27:31.313Z,0
2022-09-28T02:28:34.035Z,0
2022-09-28T02:29:36.824Z,0
2022-09-28T02:30:40.240Z,0
2022-09-28T02:31:43.559Z,0
2022-09-28T02:32:46.787Z,0
2022-09-28T02:33:49.858Z,0
2022-09-28T02:34:54.100Z,0
2022-09-28T02:35:57.554Z,0
2022-09-28T02:37:00.262Z,0
2022-09-28T02:38:03.691Z,0
2022-09-28T02:39:07.046Z,0
2022-09-28T02:40:10.395Z,0
2022-09-28T02:41:13.185Z,0
2022-09-28T02:42:15.989Z,0
2022-09-28T02:43:19.999Z,0
2022-09-28T02:44:22.715Z,0
2022-09-28T02:45:26.469Z,0
2022-09-28T02:46:29.355Z,0
2022-09-28T02:47:32.425Z,0
2022-09-28T02:48:43.446Z,0
2022-09-28T02:50:25.436Z,0
2022-09-28T02:51:28.264Z,0
2022-09-28T02:52:31.257Z,0
2022-09-28T02:53:34.047Z,0
2022-09-28T02:54:36.941Z,0
2022-09-28T02:55:40.315Z,0
2022-09-28T02:56:43.025Z,0
2022-09-28T02:57:45.813Z,0
2022-09-28T02:58:48.998Z,0
2022-09-28T02:59:51.706Z,0
2022-09-28T03:00:54.545Z,0
2022-09-28T03:01:57.630Z,0
2022-09-28T03:03:01.344Z,0
2022-09-28T03:04:04.766Z,0
2022-09-28T03:05:07.351Z,0
2022-09-28T03:06:10.630Z,0
2022-09-28T03:07:13.368Z,0
2022-09-28T03:08:16.433Z,0
2022-09-28T03:09:19.309Z,0
2022-09-28T03:10:22.016Z,0
2022-09-28T03:11:25.303Z,0
2022-09-28T03:12:27.621Z,0
2022-09-28T03:13:30.322Z,0
2022-09-28T03:14:33.681Z,0
2022-09-28T03:15:36.571Z,0
2022-09-28T03:16:39.761Z,0
2022-09-28T03:17:43.180Z,0
2022-09-28T03:18:46.063Z,0
2022-09-28T03:19:49.333Z,0
2022-09-28T03:20:52.784Z,0
2022-09-28T03:21:56.892Z,0
2022-09-28T03:23:23.121Z,0
2022-09-28T03:24:28.279Z,0
2022-09-28T03:25:30.936Z,0
2022-09-28T03:26:33.720Z,0
2022-09-28T03:27:37.065Z,0
2022-09-28T03:28:39.375Z,0
2022-09-28T03:29:41.891Z,0
2022-09-28T03:30:44.756Z,0
2022-09-28T03:31:47.995Z,0
2022-09-28T03:32:51.694Z,0
2022-09-28T03:33:54.591Z,0
2022-09-28T03:34:57.978Z,0
2022-09-28T03:36:00.835Z,0
2022-09-28T03:37:04.679Z,0
2022-09-28T03:38:08.337Z,0
2022-09-28T03:39:11.226Z,0
2022-09-28T03:40:14.291Z,0
2022-09-28T03:41:17.018Z,0
2022-09-28T03:42:19.822Z,0
2022-09-28T03:43:22.609Z,0
2022-09-28T03:44:25.409Z,0
2022-09-28T03:45:28.540Z,0
2022-09-28T03:46:32.560Z,0
2022-09-28T03:47:35.259Z,0
2022-09-28T03:48:37.863Z,0
2022-09-28T03:49:40.649Z,0
2022-09-28T03:50:43.805Z,0
2022-09-28T03:51:47.249Z,0
2022-09-28T03:52:51.355Z,0
2022-09-28T03:53:54.830Z,0
2022-09-28T03:54:58.211Z,0
2022-09-28T03:56:00.868Z,0
2022-09-28T03:57:03.784Z,0
2022-09-28T03:58:06.678Z,0
2022-09-28T03:59:09.182Z,0
2022-09-28T04:00:11.786Z,0
2022-09-28T04:01:17.217Z,0
2022-09-28T04:02:21.789Z,0
2022-09-28T04:03:25.513Z,0
2022-09-28T04:04:28.045Z,0
2022-09-28T04:05:30.573Z,0
2022-09-28T04:06:33.283Z,0
2022-09-28T04:07:36.109Z,0
2022-09-28T04:08:40.249Z,0
2022-09-28T04:09:43.518Z,0
2022-09-28T04:10:46.926Z,0
2022-09-28T04:12:03.141Z,0
2022-09-28T04:13:07.881Z,0
2022-09-28T04:14:10.976Z,0
2022-09-28T04:15:14.046Z,0
2022-09-28T04:16:17.920Z,0
2022-09-28T04:17:21.295Z,0
2022-09-28T04:18:24.164Z,0
2022-09-28T04:19:27.240Z,0
2022-09-28T04:20:30.029Z,0
2022-09-28T04:21:33.103Z,0
2022-09-28T04:22:36.198Z,0
2022-09-28T04:23:39.660Z,0
2022-09-28T04:24:43.784Z,0
2022-09-28T04:25:47.261Z,0
2022-09-28T04:26:51.262Z,0
2022-09-28T04:27:54.418Z,0
2022-09-28T04:28:57.609Z,0
2022-09-28T04:30:08.599Z,0
2022-09-28T04:31:11.868Z,0
2022-09-28T04:32:14.767Z,0
2022-09-28T04:33:18.502Z,0
2022-09-28T04:34:21.950Z,0
2022-09-28T04:35:24.821Z,0
2022-09-28T04:36:28.169Z,0
2022-09-28T04:37:31.306Z,4
2022-09-28T04:38:51.571Z,4
2022-09-28T04:39:57.252Z,0
2022-09-28T04:41:00.376Z,4
2022-09-28T04:42:04.105Z,4
2022-09-28T04:43:07.956Z,4
2022-09-28T04:44:11.147Z,8
2022-09-28T04:45:14.596Z,4
2022-09-28T04:46:18.095Z,8
2022-09-28T04:47:21.722Z,8
2022-09-28T04:48:23.970Z,12
2022-09-28T04:49:27.345Z,16
2022-09-28T04:50:30.532Z,16
2022-09-28T04:51:33.678Z,20
2022-09-28T04:52:36.397Z,20
2022-09-28T04:53:39.372Z,24
2022-09-28T04:54:42.179Z,28
2022-09-28T04:55:46.286Z,32
2022-09-28T04:56:49.400Z,36
2022-09-28T04:57:52.506Z,40
2022-09-28T04:58:55.182Z,44
2022-09-28T04:59:58.619Z,60
2022-09-28T05:01:02.322Z,72
2022-09-28T05:02:06.082Z,76
2022-09-28T05:03:09.601Z,84
2022-09-28T05:04:12.749Z,100
2022-09-28T05:05:15.555Z,120
2022-09-28T05:06:18.352Z,136
2022-09-28T05:07:20.958Z,144
2022-09-28T05:08:23.662Z,160
2022-09-28T05:09:26.236Z,192
2022-09-28T05:10:29.321Z,220
2022-09-28T05:11:33.201Z,252
2022-09-28T05:12:36.336Z,288
2022-09-28T05:13:39.473Z,352
2022-09-28T05:14:42.457Z,404
2022-09-28T05:15:45.604Z,468
2022-09-28T05:16:48.200Z,516
2022-09-28T05:17:51.780Z,552
2022-09-28T05:18:55.185Z,568
2022-09-28T05:19:57.911Z,592
2022-09-28T05:21:00.452Z,644
2022-09-28T05:22:03.876Z,680
2022-09-28T05:23:06.479Z,732
2022-09-28T05:24:09.695Z,772
2022-09-28T05:25:12.413Z,780
2022-09-28T05:26:14.937Z,740
2022-09-28T05:27:19.058Z,732
2022-09-28T05:28:22.251Z,756
2022-09-28T05:29:24.210Z,824
2022-09-28T05:30:34.459Z,928
2022-09-28T05:31:37.977Z,1000
2022-09-28T05:32:41.527Z,1032
2022-09-28T05:33:44.673Z,992
2022-09-28T05:34:47.473Z,952
2022-09-28T05:35:53.913Z,920
2022-09-28T05:37:04.653Z,992
2022-09-28T05:38:07.532Z,1048
2022-09-28T05:39:10.457Z,1100
2022-09-28T05:40:14.019Z,1268
2022-09-28T05:41:17.887Z,1432
2022-09-28T05:42:21.411Z,1504
2022-09-28T05:43:25.169Z,1572
2022-09-28T05:44:28.374Z,1616
2022-09-28T05:45:31.069Z,1548
2022-09-28T05:46:34.562Z,1624
2022-09-28T05:47:37.100Z,1804
2022-09-28T05:48:39.683Z,2016
2022-09-28T05:49:42.563Z,2172
2022-09-28T05:50:46.284Z,2528
2022-09-28T05:51:49.088Z,2604
2022-09-28T05:52:52.236Z,2520
2022-09-28T05:53:55.659Z,2628
2022-09-28T05:55:07.095Z,2592
2022-09-28T05:56:09.889Z,2728
2022-09-28T05:57:13.360Z,2596
2022-09-28T05:58:16.858Z,2564
2022-09-28T05:59:20.361Z,2584
2022-09-28T06:00:23.566Z,2432
2022-09-28T06:01:26.296Z,2260
2022-09-28T06:02:29.944Z,2068
2022-09-28T06:03:33.397Z,1880
2022-09-28T06:04:36.473Z,1944
2022-09-28T06:05:39.897Z,1648
2022-09-28T06:06:42.972Z,1380
2022-09-28T06:07:45.556Z,1296
2022-09-28T06:08:48.482Z,1240
2022-09-28T06:09:51.384Z,1232
2022-09-28T06:10:54.169Z,1236
2022-09-28T06:11:57.616Z,1484
2022-09-28T06:13:00.520Z,1648
2022-09-28T06:14:03.808Z,1664
2022-09-28T06:15:06.888Z,1808
2022-09-28T06:16:09.476Z,2060
2022-09-28T06:17:12.995Z,1908
2022-09-28T06:18:15.994Z,1732
2022-09-28T06:19:19.163Z,1664
2022-09-28T06:20:22.885Z,1580
2022-09-28T06:21:26.316Z,1624
2022-09-28T06:22:30.316Z,1588
2022-09-28T06:23:33.414Z,1616
2022-09-28T06:24:35.576Z,1648
2022-09-28T06:25:38.463Z,1692
2022-09-28T06:26:41.804Z,1772
2022-09-28T06:27:44.607Z,1804
2022-09-28T06:28:47.544Z,1772
2022-09-28T06:29:50.990Z,1880
2022-09-28T06:30:54.324Z,1888
2022-09-28T06:31:58.147Z,2092
2022-09-28T06:33:01.679Z,2120
2022-09-28T06:34:05.043Z,1940
2022-09-28T06:35:08.120Z,2068
2022-09-28T06:36:11.551Z,2284
2022-09-28T06:37:15.017Z,2760
2022-09-28T06:38:18.111Z,3180
2022-09-28T06:39:22.123Z,3424
2022-09-28T06:40:25.012Z,3820
2022-09-28T06:41:28.225Z,3852
2022-09-28T06:42:31.575Z,4132
2022-09-28T06:43:34.773Z,4304
2022-09-28T06:44:37.842Z,4408
2022-09-28T06:45:41.152Z,4672
2022-09-28T06:46:45.371Z,5052
2022-09-28T06:47:48.454Z,5176
2022-09-28T06:48:51.269Z,5308
2022-09-28T06:49:54.890Z,5288
2022-09-28T06:50:58.404Z,5404
2022-09-28T06:52:01.405Z,5280
2022-09-28T06:53:04.356Z,4936
2022-09-28T06:54:06.789Z,4560
2022-09-28T06:55:09.882Z,4740
2022-09-28T06:56:13.541Z,5080
2022-09-28T06:57:16.333Z,5648
2022-09-28T06:58:19.790Z,5776
2022-09-28T06:59:23.133Z,5848
2022-09-28T07:00:26.007Z,5764
2022-09-28T07:01:29.491Z,5440
2022-09-28T07:02:33.106Z,5808
2022-09-28T07:03:36.434Z,5484
2022-09-28T07:04:39.603Z,5636
2022-09-28T07:05:42.849Z,6312
2022-09-28T07:06:45.669Z,7548
2022-09-28T07:07:48.772Z,9240
2022-09-28T07:08:57.691Z,9716
2022-09-28T07:10:56.187Z,9996
2022-09-28T07:11:59.082Z,11384
2022-09-28T07:13:02.326Z,11960
2022-09-28T07:14:06.196Z,11736
2022-09-28T07:15:48.711Z,13052
2022-09-28T07:17:10.546Z,12652
2022-09-28T07:18:18.861Z,12924
2022-09-28T07:19:22.829Z,12452
2022-09-28T07:20:25.621Z,11700
2022-09-28T07:21:30.602Z,11552
2022-09-28T07:22:41.660Z,11332
2022-09-28T07:23:53.086Z,11328
2022-09-28T07:24:57.223Z,11140
2022-09-28T07:26:00.356Z,9684
2022-09-28T07:27:05.244Z,8676
2022-09-28T07:28:08.598Z,8240
2022-09-28T07:29:11.877Z,9212
2022-09-28T07:30:15.351Z,10508
2022-09-28T07:31:18.256Z,10620
2022-09-28T07:32:22.644Z,11444
2022-09-28T07:33:26.948Z,11700
2022-09-28T07:34:30.078Z,11520
2022-09-28T07:35:33.231Z,11292
2022-09-28T07:36:36.115Z,10464
2022-09-28T07:37:39.764Z,9812
2022-09-28T07:38:42.305Z,9940
2022-09-28T07:39:46.320Z,9924
2022-09-28T07:40:49.106Z,9900
2022-09-28T07:41:56.630Z,9676
2022-09-28T07:43:05.879Z,8368
2022-09-28T07:44:08.671Z,7344
2022-09-28T07:45:11.966Z,6788
2022-09-28T07:46:14.466Z,6584
2022-09-28T07:47:18.743Z,6892
2022-09-28T07:48:22.543Z,6680
2022-09-28T07:49:25.837Z,6752
2022-09-28T07:50:28.395Z,7152
2022-09-28T07:51:31.541Z,7968
2022-09-28T07:52:35.190Z,8728
2022-09-28T07:53:38.365Z,9116
2022-09-28T07:54:41.560Z,8276
2022-09-28T07:55:45.215Z,7476
2022-09-28T07:56:48.950Z,7056
2022-09-28T07:57:52.318Z,6860
2022-09-28T07:58:55.185Z,6880
2022-09-28T07:59:59.193Z,7196
2022-09-28T08:01:02.719Z,7608
2022-09-28T08:02:06.639Z,7828
2022-09-28T08:03:10.848Z,8384
2022-09-28T08:04:15.001Z,9136
2022-09-28T08:05:18.769Z,9804
2022-09-28T08:06:21.959Z,10800
2022-09-28T08:07:25.133Z,11572
2022-09-28T08:08:28.221Z,11748
2022-09-28T08:09:31.119Z,11656
2022-09-28T08:10:34.268Z,11172
2022-09-28T08:11:36.911Z,10504
2022-09-28T08:12:40.350Z,10276
2022-09-28T08:13:42.997Z,10424
2022-09-28T08:14:45.911Z,11420
2022-09-28T08:15:49.633Z,12896
2022-09-28T08:16:53.249Z,13216
2022-09-28T08:17:59.125Z,12896
2022-09-28T08:19:05.584Z,14816
2022-09-28T08:20:08.840Z,16868
2022-09-28T08:21:12.519Z,18624
2022-09-28T08:22:15.769Z,17588
2022-09-28T08:23:19.478Z,27424
2022-09-28T08:24:23.014Z,23328
2022-09-28T08:25:26.355Z,11704
2022-09-28T08:26:29.535Z,10460
2022-09-28T08:27:32.914Z,11048
2022-09-28T08:28:36.051Z,10124
2022-09-28T08:29:39.020Z,9820
2022-09-28T08:30:42.144Z,9756
2022-09-28T08:31:45.899Z,11328
2022-09-28T08:32:49.031Z,14448
2022-09-28T08:33:52.224Z,18432
2022-09-28T08:34:55.506Z,21760
2022-09-28T08:35:59.144Z,20480
2022-09-28T08:37:02.571Z,18816
2022-09-28T08:38:05.031Z,16700
2022-09-28T08:39:08.106Z,19776
2022-09-28T08:40:11.267Z,19616
2022-09-28T08:41:14.261Z,19808
2022-09-28T08:42:16.982Z,19232
2022-09-28T08:43:20.124Z,21696
2022-09-28T08:44:22.451Z,24736
2022-09-28T08:45:25.819Z,20000
2022-09-28T08:46:28.365Z,21280
2022-09-28T08:47:31.572Z,22272
2022-09-28T08:48:35.022Z,23264
2022-09-28T08:49:38.027Z,25472
2022-09-28T08:50:41.400Z,26176
2022-09-28T08:51:45.117Z,25952
2022-09-28T08:52:48.300Z,25504
2022-09-28T08:53:52.170Z,22272
2022-09-28T08:54:55.610Z,19232
2022-09-28T08:55:58.127Z,22016
2022-09-28T08:57:01.374Z,25280
2022-09-28T08:58:04.802Z,26432
2022-09-28T08:59:08.027Z,28256
2022-09-28T09:00:11.730Z,24736
2022-09-28T09:01:16.106Z,22944
2022-09-28T09:02:19.428Z,28512
2022-09-28T09:03:23.008Z,83936
2022-09-28T09:04:26.071Z,25120
2022-09-28T09:05:29.169Z,21696
2022-09-28T09:06:31.796Z,23328
2022-09-28T09:07:35.466Z,25632
2022-09-28T09:08:39.012Z,28896
2022-09-28T09:09:42.155Z,39200
2022-09-28T09:10:44.606Z,55968
2022-09-28T09:11:47.598Z,94208
2022-09-28T09:12:50.717Z,111968
2022-09-28T09:13:54.643Z,115008
2022-09-28T09:14:57.723Z,96864
2022-09-28T09:16:00.453Z,52352
2022-09-28T09:17:03.877Z,68384
2022-09-28T09:18:08.012Z,35104
2022-09-28T09:19:11.028Z,24800
2022-09-28T09:20:14.487Z,21600
2022-09-28T09:21:18.153Z,19328
2022-09-28T09:22:20.949Z,16280
2022-09-28T09:23:24.813Z,15264
2022-09-28T09:24:28.477Z,15196
2022-09-28T09:25:35.397Z,16164
2022-09-28T09:26:40.960Z,17384
2022-09-28T09:27:44.127Z,17828
2022-09-28T09:28:46.925Z,17508
2022-09-28T09:29:50.022Z,17564
2022-09-28T09:30:52.641Z,17668
2022-09-28T09:31:56.370Z,16736
2022-09-28T09:32:59.723Z,16344
2022-09-28T09:34:03.072Z,16092
2022-09-28T09:35:06.435Z,16580
2022-09-28T09:36:09.491Z,16276
2022-09-28T09:37:12.640Z,14356
2022-09-28T09:38:15.357Z,14208
2022-09-28T09:39:19.145Z,15020
2022-09-28T09:40:22.589Z,16096
2022-09-28T09:41:26.063Z,17296
2022-09-28T09:42:29.487Z,19712
2022-09-28T09:43:33.492Z,23584
2022-09-28T09:44:36.930Z,28352
2022-09-28T09:45:40.312Z,30624
2022-09-28T09:46:44.038Z,29856
2022-09-28T09:47:47.006Z,28256
2022-09-28T09:48:50.439Z,26752
2022-09-28T09:49:53.614Z,26016
2022-09-28T09:50:56.696Z,26240
2022-09-28T09:51:59.870Z,25504
2022-09-28T09:53:03.225Z,24864
2022-09-28T09:54:06.873Z,24224
2022-09-28T09:55:10.972Z,23872
2022-09-28T09:56:14.847Z,23680
2022-09-28T09:57:18.581Z,24064
2022-09-28T09:58:21.736Z,25472
2022-09-28T09:59:25.282Z,29184
2022-09-28T10:00:28.709Z,35424
2022-09-28T10:01:30.619Z,36160
2022-09-28T10:02:34.267Z,74368
2022-09-28T10:03:37.749Z,46592
2022-09-28T10:04:40.887Z,96224
2022-09-28T10:05:43.869Z,42560
2022-09-28T10:06:46.817Z,30176
2022-09-28T10:07:49.604Z,23520
2022-09-28T10:08:52.198Z,21152
2022-09-28T10:09:55.644Z,21792
2022-09-28T10:10:59.361Z,23040
2022-09-28T10:12:03.192Z,23104
2022-09-28T10:13:06.559Z,22816
2022-09-28T10:14:09.263Z,21632
2022-09-28T10:15:12.348Z,20768
2022-09-28T10:16:16.120Z,21280
2022-09-28T10:17:19.434Z,22336
2022-09-28T10:18:22.532Z,22464
2022-09-28T10:19:26.160Z,23392
2022-09-28T10:20:29.929Z,23424
2022-09-28T10:21:33.095Z,21760
2022-09-28T10:22:36.277Z,20224
2022-09-28T10:23:39.928Z,19296
2022-09-28T10:24:42.739Z,19200
2022-09-28T10:25:45.734Z,20288
2022-09-28T10:26:49.190Z,21472
2022-09-28T10:27:52.804Z,24128
2022-09-28T10:28:56.545Z,30240
2022-09-28T10:29:59.740Z,133568
2022-09-28T10:31:03.021Z,108192
2022-09-28T10:32:06.936Z,92160
2022-09-28T10:33:10.723Z,143712
2022-09-28T10:34:13.944Z,76320
2022-09-28T10:35:18.262Z,145664
2022-09-28T10:36:21.805Z,135072
2022-09-28T10:37:25.076Z,20448
2022-09-28T10:38:27.692Z,15296
2022-09-28T10:39:31.143Z,15084
2022-09-28T10:40:34.664Z,15840
2022-09-28T10:41:37.853Z,18560
2022-09-28T10:42:41.944Z,20096
2022-09-28T10:43:49.599Z,21152
2022-09-28T10:45:00.015Z,25312
2022-09-28T10:46:02.863Z,37280
2022-09-28T10:47:06.114Z,146624
2022-09-28T10:48:08.636Z,141888
2022-09-28T10:49:11.238Z,145664
2022-09-28T10:50:14.025Z,149952
2022-09-28T10:51:16.276Z,81792
2022-09-28T10:52:19.445Z,98976
2022-09-28T10:53:22.598Z,25216
2022-09-28T10:54:26.672Z,25984
2022-09-28T10:55:29.662Z,29216
2022-09-28T10:56:32.736Z,71264
2022-09-28T10:57:35.719Z,34400
2022-09-28T10:58:39.259Z,34496
2022-09-28T10:59:42.652Z,33056
2022-09-28T11:00:46.161Z,48736
2022-09-28T11:01:49.532Z,130016
2022-09-28T11:02:52.614Z,45024
2022-09-28T11:03:55.922Z,25888
2022-09-28T11:04:58.703Z,23040
2022-09-28T11:06:01.982Z,21280
2022-09-28T11:07:05.728Z,19776
2022-09-28T11:08:09.002Z,19328
2022-09-28T11:09:11.865Z,23648
2022-09-28T11:10:15.274Z,35872
2022-09-28T11:11:19.316Z,74400
2022-09-28T11:12:23.034Z,77856
2022-09-28T11:13:25.756Z,78688
2022-09-28T11:14:29.854Z,84896
2022-09-28T11:15:33.641Z,112352
2022-09-28T11:16:37.098Z,128736
2022-09-28T11:17:40.916Z,129472
2022-09-28T11:18:44.720Z,86688
2022-09-28T11:19:47.864Z,82592
2022-09-28T11:20:50.860Z,31008
2022-09-28T11:21:53.658Z,21440
2022-09-28T11:22:57.113Z,17552
2022-09-28T11:23:59.921Z,15740
2022-09-28T11:25:03.451Z,14880
2022-09-28T11:26:07.181Z,14384
2022-09-28T11:27:10.635Z,14468
2022-09-28T11:28:14.483Z,14436
2022-09-28T11:29:17.878Z,14288
2022-09-28T11:30:22.402Z,14044
2022-09-28T11:31:26.390Z,14180
2022-09-28T11:32:29.590Z,14196
2022-09-28T11:33:32.379Z,13928
2022-09-28T11:34:54.828Z,14504
2022-09-28T11:36:03.197Z,15804
2022-09-28T11:37:06.636Z,17680
2022-09-28T11:38:08.977Z,23456
2022-09-28T11:39:12.328Z,31008
2022-09-28T11:40:15.470Z,123968
2022-09-28T11:41:19.312Z,126496
2022-09-28T11:42:23.013Z,124256
2022-09-28T11:43:26.816Z,118720
2022-09-28T11:44:32.470Z,74752
2022-09-28T11:45:37.013Z,41216
2022-09-28T11:46:40.968Z,23552
2022-09-28T11:47:44.101Z,19264
2022-09-28T11:48:47.450Z,17288
2022-09-28T11:49:50.328Z,15812
2022-09-28T11:50:53.803Z,14908
2022-09-28T11:51:57.167Z,15672
2022-09-28T11:52:59.972Z,20512
2022-09-28T11:54:03.141Z,33792
2022-09-28T11:55:06.022Z,29248
2022-09-28T11:56:09.455Z,27808
2022-09-28T11:57:13.154Z,23232
2022-09-28T11:58:16.870Z,19392
2022-09-28T11:59:19.473Z,15888
2022-09-28T12:00:21.238Z,13284
2022-09-28T12:01:24.458Z,12180
2022-09-28T12:02:28.291Z,11264
2022-09-28T12:03:31.874Z,10400
2022-09-28T12:04:35.471Z,9740
2022-09-28T12:05:38.903Z,9480
2022-09-28T12:06:42.329Z,9444
2022-09-28T12:07:45.499Z,9236
2022-09-28T12:08:48.955Z,8920
2022-09-28T12:09:52.293Z,8600
2022-09-28T12:10:55.793Z,8404
2022-09-28T12:11:59.220Z,8308
2022-09-28T12:13:02.565Z,8376
2022-09-28T12:14:05.726Z,8416
2022-09-28T12:15:08.076Z,8680
2022-09-28T12:18:23.406Z,9980
2022-09-28T12:19:26.495Z,10060
2022-09-28T12:20:29.937Z,10104
2022-09-28T12:21:32.740Z,10624
2022-09-28T12:22:36.164Z,10364
2022-09-28T12:23:39.633Z,10264
2022-09-28T12:24:43.097Z,10648
2022-09-28T12:25:46.563Z,11176
2022-09-28T12:26:49.713Z,11652
2022-09-28T12:27:52.897Z,11292
2022-09-28T12:28:56.172Z,10404
2022-09-28T12:29:58.857Z,9552
2022-09-28T12:31:02.304Z,8436
2022-09-28T12:32:05.687Z,7420
2022-09-28T12:33:08.555Z,6324
2022-09-28T12:34:12.470Z,5372
2022-09-28T12:35:15.918Z,4716
2022-09-28T12:36:18.723Z,4208
2022-09-28T12:37:21.502Z,3808
2022-09-28T12:38:23.930Z,3548
2022-09-28T12:39:41.188Z,3384
2022-09-28T12:41:03.820Z,3160
2022-09-28T12:42:07.237Z,3196
2022-09-28T12:43:10.660Z,3260
2022-09-28T12:44:13.604Z,3240
2022-09-28T12:45:16.475Z,3124
2022-09-28T12:46:19.681Z,2944
2022-09-28T12:47:22.968Z,2840
2022-09-28T12:48:25.896Z,2788
2022-09-28T12:51:59.997Z,2496
2022-09-28T12:53:03.465Z,2464
2022-09-28T12:54:06.815Z,2436
2022-09-28T12:56:14.682Z,2364
2022-09-28T12:57:23.366Z,2356
2022-09-28T12:58:26.364Z,2372
2022-09-28T12:59:29.537Z,2396
2022-09-28T13:00:32.044Z,2400
2022-09-28T13:01:35.251Z,2424
2022-09-28T13:02:39.091Z,2468
2022-09-28T13:03:43.206Z,2528
2022-09-28T13:04:47.371Z,2592
2022-09-28T13:05:51.070Z,2668
2022-09-28T13:06:54.437Z,2772
2022-09-28T13:07:57.501Z,2880
2022-09-28T13:09:00.942Z,2996
2022-09-28T13:10:03.763Z,3124
2022-09-28T13:11:08.075Z,3216
2022-09-28T13:12:10.888Z,3320
2022-09-28T13:13:14.609Z,3532
2022-09-28T13:14:17.930Z,3808
2022-09-28T13:15:21.098Z,4028
2022-09-28T13:16:24.904Z,4180
2022-09-28T13:17:28.550Z,4212
2022-09-28T13:18:31.722Z,4156
2022-09-28T13:19:34.843Z,4072
2022-09-28T13:20:38.950Z,4008
2022-09-28T13:21:42.014Z,3952
2022-09-28T13:22:45.038Z,3884
2022-09-28T13:23:48.497Z,4004
2022-09-28T13:24:51.649Z,4268
2022-09-28T13:25:54.399Z,4656
2022-09-28T13:26:57.672Z,5180
2022-09-28T13:28:00.295Z,5760
2022-09-28T13:29:03.708Z,6284
2022-09-28T13:30:07.157Z,6760
2022-09-28T13:31:09.622Z,7168
2022-09-28T13:32:11.662Z,7628
2022-09-28T13:33:14.734Z,8180
2022-09-28T13:34:17.499Z,8824
2022-09-28T13:35:21.224Z,9680
2022-09-28T13:36:25.467Z,10684
2022-09-28T13:37:28.259Z,11668
2022-09-28T13:38:31.358Z,12520
2022-09-28T13:39:35.060Z,13332
2022-09-28T13:40:38.910Z,14280
2022-09-28T13:41:42.492Z,15248
2022-09-28T13:42:45.556Z,15980
2022-09-28T13:43:48.899Z,16512
2022-09-28T13:44:51.799Z,17284
2022-09-28T13:45:55.044Z,18304
2022-09-28T13:46:58.762Z,18656
2022-09-28T13:48:01.934Z,20160
2022-09-28T13:49:05.009Z,18496
2022-09-28T13:50:08.160Z,16952
2022-09-28T13:51:11.194Z,16568
2022-09-28T13:52:15.406Z,17068
2022-09-28T13:53:18.576Z,26272
2022-09-28T13:54:21.705Z,34240
2022-09-28T13:55:25.076Z,29760
2022-09-28T13:56:28.155Z,16040
2022-09-28T13:57:30.741Z,15976
2022-09-28T13:58:33.892Z,16128
2022-09-28T13:59:37.158Z,18592
2022-09-28T14:00:40.658Z,19520
2022-09-28T14:01:44.686Z,18020
2022-09-28T14:02:47.840Z,16092
2022-09-28T14:03:51.560Z,16304
2022-09-28T14:04:55.004Z,14244
2022-09-28T14:05:58.089Z,14140
2022-09-28T14:07:01.170Z,13528
2022-09-28T14:08:04.782Z,13332
2022-09-28T14:09:08.116Z,13868
2022-09-28T14:10:11.669Z,13552
2022-09-28T14:11:14.736Z,12896
2022-09-28T14:12:18.082Z,13156
2022-09-28T14:13:20.949Z,11676
2022-09-28T14:14:24.095Z,11324
2022-09-28T14:15:26.996Z,11420
2022-09-28T14:16:31.228Z,11904
2022-09-28T14:17:34.537Z,11784
2022-09-28T14:18:38.266Z,11924
2022-09-28T14:19:41.056Z,12820
2022-09-28T14:20:44.499Z,13488
2022-09-28T14:21:47.105Z,14888
2022-09-28T14:22:50.435Z,14948
2022-09-28T14:23:57.595Z,21312
2022-09-28T14:25:02.841Z,14124
2022-09-28T14:26:05.885Z,12796
2022-09-28T14:27:08.853Z,11880
2022-09-28T14:28:11.957Z,10952
2022-09-28T14:29:15.137Z,10332
2022-09-28T14:30:18.459Z,10028
2022-09-28T14:31:21.208Z,9788
2022-09-28T14:32:24.524Z,9784
2022-09-28T14:33:27.588Z,9636